createdAt,value
2023-03-06T00:02:02.226Z,100341.34
2023-03-06T00:06:03.866Z,100343.19
2023-03-06T00:10:05.586Z,100337.91
2023-03-06T00:14:07.026Z,100337.81
2023-03-06T00:18:08.558Z,100330.09
2023-03-06T00:22:13.234Z,100323.94
2023-03-06T00:26:14.786Z,100317.63
2023-03-06T00:30:20.099Z,100320.28
2023-03-06T00:34:21.522Z,100319.50
2023-03-06T00:38:23.051Z,100313.13
2023-03-06T00:42:24.603Z,100318.56
2023-03-06T00:46:26.545Z,100315.94
2023-03-06T00:50:28.046Z,100314.09
2023-03-06T00:54:29.486Z,100314.78
2023-03-06T00:58:30.914Z,100305.34
2023-03-06T01:02:32.629Z,100305.97
2023-03-06T01:06:34.136Z,100297.28
2023-03-06T01:10:39.689Z,100292.16
2023-03-06T01:14:41.150Z,100296.56
2023-03-06T01:18:45.772Z,100285.16
2023-03-06T01:22:47.217Z,100274.75
2023-03-06T01:26:48.633Z,100272.94
2023-03-06T01:30:50.380Z,100277.34
2023-03-06T01:34:52.706Z,100273.13
2023-03-06T01:38:54.179Z,100267.06
2023-03-06T01:42:55.646Z,100265.41
2023-03-06T01:46:57.271Z,100266.34
2023-03-06T01:50:58.860Z,100261.00
2023-03-06T01:55:05.590Z,100250.38
2023-03-06T01:59:07.652Z,100250.41
2023-03-06T02:03:22.470Z,100240.75
2023-03-06T02:07:24.897Z,100247.84
2023-03-06T02:11:26.590Z,100241.50
2023-03-06T02:15:29.444Z,100243.38
2023-03-06T02:20:13.788Z,100234.66
2023-03-06T02:25:03.335Z,100231.00
2023-03-06T02:29:04.955Z,100231.97
2023-03-06T02:33:06.496Z,100231.97
2023-03-06T02:37:09.654Z,100231.91
2023-03-06T02:41:11.431Z,100223.91
2023-03-06T02:45:17.196Z,100225.50
2023-03-06T02:49:18.617Z,100231.50
2023-03-06T02:53:21.141Z,100223.47
2023-03-06T02:57:22.674Z,100223.31
2023-03-06T03:01:24.355Z,100221.44
2023-03-06T03:05:26.278Z,100217.13
2023-03-06T03:09:36.904Z,100209.13
2023-03-06T03:13:39.074Z,100216.53
2023-03-06T03:17:43.183Z,100210.34
2023-03-06T03:21:44.675Z,100201.66
2023-03-06T03:25:46.213Z,100204.22
2023-03-06T03:29:48.292Z,100198.97
2023-03-06T03:33:50.328Z,100195.38
2023-03-06T03:37:55.152Z,100197.00
2023-03-06T03:41:57.096Z,100197.97
2023-03-06T03:45:58.984Z,100202.22
2023-03-06T03:50:00.802Z,100199.72
2023-03-06T03:54:02.552Z,100197.41
2023-03-06T03:58:10.117Z,100194.16
2023-03-06T04:02:12.009Z,100191.47
2023-03-06T04:06:22.439Z,100194.88
2023-03-06T04:10:24.372Z,100185.34
2023-03-06T04:14:26.001Z,100181.88
2023-03-06T04:18:28.525Z,100177.53
2023-03-06T04:22:34.112Z,100170.53
2023-03-06T04:26:36.811Z,100170.59
2023-03-06T04:30:39.333Z,100170.59
2023-03-06T04:34:41.251Z,100161.06
2023-03-06T04:38:43.210Z,100160.16
2023-03-06T04:42:45.891Z,100154.19
2023-03-06T04:46:47.308Z,100154.03
2023-03-06T04:50:48.780Z,100147.94
2023-03-06T04:54:50.187Z,100147.06
2023-03-06T04:58:51.643Z,100146.09
2023-03-06T05:02:53.055Z,100152.25
2023-03-06T05:06:54.467Z,100144.31
2023-03-06T05:10:58.518Z,100142.56
2023-03-06T05:14:59.931Z,100139.44
2023-03-06T05:19:01.386Z,100133.19
2023-03-06T05:23:02.789Z,100143.69
2023-03-06T05:27:04.374Z,100148.28
2023-03-06T05:31:06.082Z,100150.38
2023-03-06T05:35:07.914Z,100143.88
2023-03-06T05:39:09.888Z,100147.44
2023-03-06T05:43:12.208Z,100143.22
2023-03-06T05:47:13.835Z,100142.25
2023-03-06T05:51:15.629Z,100134.53
2023-03-06T05:55:19.451Z,100139.81
2023-03-06T05:59:20.933Z,100136.31
2023-03-06T06:03:23.298Z,100132.84
2023-03-06T06:07:24.725Z,100126.66
2023-03-06T06:11:26.140Z,100138.84
2023-03-06T06:15:28.842Z,100139.47
2023-03-06T06:19:31.387Z,100139.31
2023-03-06T06:23:33.106Z,100140.75
2023-03-06T06:27:34.598Z,100139.41
2023-03-06T06:31:38.956Z,100146.47
2023-03-06T06:35:40.442Z,100142.06
2023-03-06T06:39:41.950Z,100137.66
2023-03-06T06:43:43.530Z,100134.53
2023-03-06T06:47:46.099Z,100132.72
2023-03-06T06:51:47.592Z,100130.03
2023-03-06T06:55:49.117Z,100123.31
2023-03-06T06:59:52.558Z,100114.69
2023-03-06T07:03:55.750Z,100120.81
2023-03-06T07:07:57.232Z,100122.63
2023-03-06T07:11:58.688Z,100117.56
2023-03-06T07:16:00.176Z,100117.59
2023-03-06T07:20:01.820Z,100117.72
2023-03-06T07:24:03.594Z,100109.75
2023-03-06T07:28:05.333Z,100115.78
2023-03-06T07:32:06.895Z,100112.44
2023-03-06T07:36:12.742Z,100109.06
2023-03-06T07:40:14.329Z,100113.44
2023-03-06T07:44:15.779Z,100113.34
2023-03-06T07:48:17.178Z,100118.63
2023-03-06T07:52:18.589Z,100112.44
2023-03-06T07:56:20.458Z,100115.09
2023-03-06T08:00:22.097Z,100117.78
2023-03-06T08:04:23.603Z,100120.38
2023-03-06T08:08:25.012Z,100109.88
2023-03-06T08:12:26.751Z,100117.81
2023-03-06T08:16:30.058Z,100121.31
2023-03-06T08:20:31.595Z,100120.47
2023-03-06T08:24:34.465Z,100125.69
2023-03-06T08:28:36.106Z,100123.97
2023-03-06T08:32:38.072Z,100127.50
2023-03-06T08:36:40.331Z,100132.78
2023-03-06T08:40:41.789Z,100140.66
2023-03-06T08:44:43.364Z,100133.66
2023-03-06T08:48:47.683Z,100138.94
2023-03-06T08:52:49.102Z,100145.94
2023-03-06T08:56:50.542Z,100145.06
2023-03-06T09:00:52.133Z,100150.31
2023-03-06T09:04:53.987Z,100154.69
2023-03-06T09:08:55.483Z,100152.94
2023-03-06T09:12:56.939Z,100157.25
2023-03-06T09:16:58.460Z,100150.31
2023-03-06T09:20:59.968Z,100154.66
2023-03-06T09:25:01.771Z,100153.78
2023-03-06T09:29:03.254Z,100154.69
2023-03-06T09:33:04.673Z,100146.75
2023-03-06T09:37:06.147Z,100152.91
2023-03-06T09:41:15.522Z,100144.16
2023-03-06T09:45:17.179Z,100152.88
2023-03-06T09:49:40.011Z,100143.25
2023-03-06T09:53:58.955Z,100142.31
2023-03-06T09:58:18.884Z,100138.03
2023-03-06T10:02:41.824Z,100133.66
2023-03-06T10:06:53.000Z,100137.09
2023-03-06T10:11:03.536Z,100139.59
2023-03-06T10:15:36.029Z,100136.19
2023-03-06T10:19:42.084Z,100135.38
2023-03-06T10:23:54.465Z,100134.41
2023-03-06T10:28:14.414Z,100129.97
2023-03-06T10:32:32.158Z,100129.97
2023-03-06T10:36:38.274Z,100131.53
2023-03-06T10:40:49.257Z,100115.66
2023-03-06T10:45:07.800Z,100114.94
2023-03-06T10:49:24.285Z,100109.72
2023-03-06T10:53:31.175Z,100113.97
2023-03-06T10:57:32.857Z,100106.00
2023-03-06T11:01:35.295Z,100118.44
2023-03-06T11:05:36.909Z,100114.75
2023-03-06T11:09:38.856Z,100116.50
2023-03-06T11:13:43.341Z,100120.19
2023-03-06T11:17:49.131Z,100106.88
2023-03-06T11:22:06.501Z,100107.72
2023-03-06T11:26:16.980Z,100109.59
2023-03-06T11:30:22.222Z,100111.41
2023-03-06T11:34:36.579Z,100116.44
2023-03-06T11:38:52.754Z,100111.31
2023-03-06T11:43:04.326Z,100108.91
2023-03-06T11:47:31.963Z,100111.31
2023-03-06T11:51:37.941Z,100114.06
2023-03-06T11:56:07.362Z,100114.03
2023-03-06T12:00:33.389Z,100106.41
2023-03-06T12:04:41.241Z,100111.25
2023-03-06T12:09:12.760Z,100109.47
2023-03-06T12:13:37.158Z,100099.94
2023-03-06T12:18:01.721Z,100101.38
2023-03-06T12:22:31.185Z,100096.22
2023-03-06T12:26:41.680Z,100096.38
2023-03-06T12:31:25.918Z,100097.09
2023-03-06T12:35:50.350Z,100093.34
2023-03-06T12:40:06.558Z,100094.16
2023-03-06T12:44:20.104Z,100085.00
2023-03-06T12:48:25.672Z,100090.41
2023-03-06T12:52:31.986Z,100090.53
2023-03-06T12:56:35.238Z,100098.31
2023-03-06T13:00:39.295Z,100098.47
2023-03-06T13:05:11.843Z,100092.44
2023-03-06T13:09:19.584Z,100087.03
2023-03-06T13:13:42.606Z,100087.97
2023-03-06T13:17:44.176Z,100083.41
2023-03-06T13:21:56.596Z,100080.84
2023-03-06T13:26:00.084Z,100089.78
2023-03-06T13:30:19.578Z,100081.03
2023-03-06T13:34:35.747Z,100078.03
2023-03-06T13:39:03.107Z,100088.06
2023-03-06T13:43:18.556Z,100081.81
2023-03-06T13:48:01.374Z,100073.88
2023-03-06T13:52:09.269Z,100074.69
2023-03-06T13:56:26.835Z,100070.19
2023-03-06T14:00:37.345Z,100068.31
2023-03-06T14:04:38.852Z,100075.56
2023-03-06T14:08:40.836Z,100061.66
2023-03-06T14:12:59.750Z,100065.34
2023-03-06T14:17:05.073Z,100062.72
2023-03-06T14:21:14.578Z,100052.09
2023-03-06T14:25:23.953Z,100054.78
2023-03-06T14:29:27.612Z,100054.88
2023-03-06T14:33:34.644Z,100053.19
2023-03-06T14:37:37.543Z,100048.88
2023-03-06T14:41:39.583Z,100042.59
2023-03-06T14:45:54.919Z,100047.75
2023-03-06T14:50:18.071Z,100046.97
2023-03-06T14:54:25.529Z,100047.88
2023-03-06T14:58:36.053Z,100048.72
2023-03-06T15:02:37.662Z,100046.25
2023-03-06T15:06:43.824Z,100052.19
2023-03-06T15:10:57.336Z,100050.47
2023-03-06T15:15:02.590Z,100045.31
2023-03-06T15:19:04.533Z,100041.72
2023-03-06T15:23:17.898Z,100040.84
2023-03-06T15:27:26.781Z,100035.47
2023-03-06T15:31:31.021Z,100035.56
2023-03-06T15:35:36.614Z,100035.44
2023-03-06T15:39:41.400Z,100029.16
2023-03-06T15:43:42.813Z,100026.56
2023-03-06T15:47:46.128Z,100029.38
2023-03-06T15:51:47.880Z,100030.06
2023-03-06T15:55:51.596Z,100033.63
2023-03-06T15:59:54.123Z,100027.56
2023-03-06T16:03:55.578Z,100027.66
2023-03-06T16:07:57.334Z,100024.16
2023-03-06T16:11:59.332Z,100027.00
2023-03-06T16:16:00.805Z,100022.50
2023-03-06T16:20:02.283Z,100018.09
2023-03-06T16:24:03.747Z,100022.28
2023-03-06T16:28:08.541Z,100017.16
2023-03-06T16:32:11.156Z,100012.25
2023-03-06T16:36:20.798Z,100014.03
2023-03-06T16:40:30.664Z,100012.09
2023-03-06T16:44:32.127Z,100007.00
2023-03-06T16:48:34.042Z,100007.88
2023-03-06T16:52:35.466Z,100015.84
2023-03-06T16:56:36.915Z,100011.56
2023-03-06T17:00:38.406Z,100004.47
2023-03-06T17:04:39.908Z,100011.75
2023-03-06T17:08:41.341Z,100009.06
2023-03-06T17:12:43.436Z,100003.84
2023-03-06T17:16:45.596Z,100018.81
2023-03-06T17:20:51.369Z,100011.88
2023-03-06T17:24:53.155Z,100016.25
2023-03-06T17:28:56.030Z,100012.75
2023-03-06T17:32:58.228Z,100015.41
2023-03-06T17:37:01.257Z,100017.13
2023-03-06T17:41:07.218Z,100021.53
2023-03-06T17:45:09.547Z,100019.72
2023-03-06T17:49:11.085Z,100020.59
2023-03-06T17:53:12.579Z,100019.72
2023-03-06T17:57:14.008Z,100014.41
2023-03-06T18:01:19.672Z,100012.66
2023-03-06T18:05:21.710Z,100004.75
2023-03-06T18:09:23.267Z,100008.22
2023-03-06T18:13:24.723Z,100007.31
2023-03-06T18:17:26.138Z,100001.09
2023-03-06T18:21:27.649Z,100001.16
2023-03-06T18:25:32.768Z,99995.88
2023-03-06T18:29:34.258Z,99997.59
2023-03-06T18:33:35.771Z,99997.63
2023-03-06T18:37:37.376Z,99991.53
2023-03-06T18:41:38.806Z,99990.75
2023-03-06T18:45:40.276Z,99982.00
2023-03-06T18:49:44.124Z,99985.50
2023-03-06T18:53:46.203Z,99980.22
2023-03-06T18:57:47.692Z,99989.56
2023-03-06T19:01:49.261Z,99980.22
2023-03-06T19:05:50.785Z,99978.50
2023-03-06T19:09:52.223Z,99979.28
2023-03-06T19:13:54.258Z,99973.13
2023-03-06T19:17:55.793Z,99971.31
2023-03-06T19:21:58.245Z,99979.94
2023-03-06T19:26:00.250Z,99974.91
2023-03-06T19:30:01.764Z,99966.13
2023-03-06T19:34:03.248Z,99963.47
2023-03-06T19:38:05.003Z,99964.47
2023-03-06T19:42:06.690Z,99963.56
2023-03-06T19:46:14.816Z,99960.16
2023-03-06T19:50:16.446Z,99952.22
2023-03-06T19:54:23.106Z,99956.69
2023-03-06T19:58:24.586Z,99961.84
2023-03-06T20:02:27.209Z,99954.81
2023-03-06T20:06:33.270Z,99954.81
2023-03-06T20:10:36.605Z,99950.50
2023-03-06T20:14:38.046Z,99947.75
2023-03-06T20:18:39.621Z,99954.72
2023-03-06T20:22:41.226Z,99932.78
2023-03-06T20:26:44.383Z,99933.75
2023-03-06T20:30:45.960Z,99928.31
2023-03-06T20:34:47.388Z,99923.13
2023-03-06T20:38:49.101Z,99918.66
2023-03-06T20:42:50.547Z,99905.69
2023-03-06T20:46:52.591Z,99898.66
2023-03-06T20:51:02.623Z,99894.25
2023-03-06T20:55:04.363Z,99888.31
2023-03-06T20:59:06.416Z,99878.63
2023-03-06T21:03:07.932Z,99877.75
2023-03-06T21:07:09.363Z,99877.78
2023-03-06T21:11:10.956Z,99871.63
2023-03-06T21:15:12.946Z,99864.66
2023-03-06T21:19:14.541Z,99861.19
2023-03-06T21:23:16.011Z,99847.25
2023-03-06T21:27:17.472Z,99837.69
2023-03-06T21:31:20.849Z,99834.19
2023-03-06T21:35:22.710Z,99833.31
2023-03-06T21:39:24.196Z,99827.19
2023-03-06T21:43:25.599Z,99819.25
2023-03-06T21:47:27.037Z,99812.31
2023-03-06T21:51:28.606Z,99807.94
2023-03-06T21:55:30.088Z,99802.72
2023-03-06T21:59:31.503Z,99795.72
2023-03-06T22:03:32.935Z,99785.25
2023-03-06T22:07:38.525Z,99776.50
2023-03-06T22:11:40.036Z,99778.28
2023-03-06T22:15:50.249Z,99766.91
2023-03-06T22:19:52.488Z,99761.69
2023-03-06T22:23:59.778Z,99752.03
2023-03-06T22:28:01.179Z,99745.06
2023-03-06T22:32:02.734Z,99737.19
2023-03-06T22:36:07.867Z,99731.09
2023-03-06T22:40:10.297Z,99719.72
2023-03-06T22:44:16.832Z,99717.09
2023-03-06T22:48:19.847Z,99707.47
2023-03-06T22:52:21.305Z,99700.50
2023-03-06T22:56:22.992Z,99688.25
2023-03-06T23:00:25.474Z,99678.53
2023-03-06T23:04:27.006Z,99675.13
2023-03-06T23:08:28.538Z,99658.47
2023-03-06T23:12:29.959Z,99653.25
2023-03-06T23:16:49.828Z,99642.78
2023-03-06T23:21:11.416Z,99636.66
2023-03-06T23:25:31.326Z,99622.66
2023-03-06T23:29:32.821Z,99616.53
2023-03-06T23:33:34.706Z,99610.41
2023-03-06T23:37:36.106Z,99598.13
2023-03-06T23:41:37.824Z,99595.56
2023-03-06T23:45:39.263Z,99594.72
2023-03-06T23:49:40.695Z,99589.44
2023-03-06T23:53:43.771Z,99583.28
2023-03-06T23:57:45.234Z,99570.25
